createdAt,value
2022-11-15T00:01:20.947Z,100295.34
2022-11-15T00:03:25.557Z,100284.09
2022-11-15T00:05:27.775Z,100277.22
2022-11-15T00:07:54.182Z,100275.41
2022-11-15T00:09:51.170Z,100265.97
2022-11-15T00:11:52.978Z,100266.84
2022-11-15T00:13:58.514Z,100262.53
2022-11-15T00:16:02.001Z,100262.53
2022-11-15T00:18:05.452Z,100257.38
2022-11-15T00:20:07.803Z,100248.75
2022-11-15T00:22:09.473Z,100253.06
2022-11-15T00:24:11.252Z,100255.66
2022-11-15T00:26:15.265Z,100255.63
2022-11-15T00:28:16.969Z,100249.63
2022-11-15T00:30:19.015Z,100237.59
2022-11-15T00:32:20.722Z,100240.97
2022-11-15T00:34:22.443Z,100239.31
2022-11-15T00:36:24.450Z,100234.16
2022-11-15T00:38:26.142Z,100225.50
2022-11-15T00:40:28.114Z,100228.06
2022-11-15T00:42:29.758Z,100216.94
2022-11-15T00:44:31.486Z,100224.53
2022-11-15T00:46:33.132Z,100218.66
2022-11-15T00:48:34.874Z,100214.28
2022-11-15T00:50:36.539Z,100204.00
2022-11-15T00:52:38.414Z,100201.44
2022-11-15T00:54:40.110Z,100197.91
2022-11-15T00:56:41.777Z,100191.88
2022-11-15T00:58:43.470Z,100185.88
2022-11-15T01:00:45.232Z,100185.88
2022-11-15T01:02:47.030Z,100179.00
2022-11-15T01:04:48.727Z,100174.75
2022-11-15T01:06:50.502Z,100169.53
2022-11-15T01:08:52.497Z,100161.00
2022-11-15T01:10:54.123Z,100158.38
2022-11-15T01:12:55.896Z,100158.34
2022-11-15T01:14:57.840Z,100152.41
2022-11-15T01:16:59.509Z,100147.19
2022-11-15T01:19:01.165Z,100153.19
2022-11-15T01:21:07.837Z,100149.75
2022-11-15T01:23:10.134Z,100149.81
2022-11-15T01:25:11.993Z,100150.63
2022-11-15T01:27:13.926Z,100142.03
2022-11-15T01:29:15.663Z,100129.09
2022-11-15T01:31:20.759Z,100130.78
2022-11-15T01:33:22.447Z,100124.78
2022-11-15T01:35:24.193Z,100120.50
2022-11-15T01:37:25.928Z,100113.63
2022-11-15T01:39:27.848Z,100113.47
2022-11-15T01:41:33.288Z,100117.84
2022-11-15T01:43:37.668Z,100113.53
2022-11-15T01:45:39.907Z,100107.53
2022-11-15T01:47:49.793Z,100103.22
2022-11-15T01:50:05.203Z,100089.44
2022-11-15T01:52:11.657Z,100098.84
2022-11-15T01:54:17.569Z,100098.88
2022-11-15T01:56:26.504Z,100090.28
2022-11-15T01:58:28.208Z,100081.63
2022-11-15T02:00:31.703Z,100083.41
2022-11-15T02:02:42.506Z,100077.34
2022-11-15T02:04:45.744Z,100067.06
2022-11-15T02:06:49.324Z,100069.69
2022-11-15T02:08:52.081Z,100066.28
2022-11-15T02:10:53.849Z,100064.53
2022-11-15T02:13:00.797Z,100065.38
2022-11-15T02:15:03.933Z,100060.22
2022-11-15T02:17:14.399Z,100056.84
2022-11-15T02:19:34.418Z,100049.06
2022-11-15T02:22:01.036Z,100038.75
2022-11-15T02:24:31.589Z,100033.59
2022-11-15T02:27:18.351Z,100029.25
2022-11-15T02:29:39.001Z,100030.97
2022-11-15T02:31:49.556Z,100032.69
2022-11-15T02:34:20.882Z,100026.72
2022-11-15T02:36:50.085Z,100017.22
2022-11-15T02:39:01.061Z,100015.56
2022-11-15T02:41:11.169Z,100003.53
2022-11-15T02:43:37.558Z,99998.44
2022-11-15T02:45:49.621Z,99996.72
2022-11-15T02:47:55.963Z,99990.75
2022-11-15T02:50:06.229Z,99987.28
2022-11-15T02:52:07.997Z,99995.81
2022-11-15T02:54:22.166Z,99988.97
2022-11-15T02:56:23.864Z,99987.25
2022-11-15T02:58:43.700Z,99977.00
2022-11-15T03:01:05.597Z,99969.22
2022-11-15T03:03:38.026Z,99967.53
2022-11-15T03:05:51.538Z,99970.09
2022-11-15T03:08:06.578Z,99960.59
2022-11-15T03:10:22.487Z,99948.66
2022-11-15T03:13:01.254Z,99946.94
2022-11-15T03:15:11.044Z,99944.38
2022-11-15T03:17:27.618Z,99933.19
2022-11-15T03:19:51.457Z,99931.50
2022-11-15T03:21:56.287Z,99933.22
2022-11-15T03:24:06.469Z,99929.75
2022-11-15T03:26:15.644Z,99934.94
2022-11-15T03:28:43.884Z,99931.53
2022-11-15T03:30:48.962Z,99927.22
2022-11-15T03:32:56.870Z,99923.78
2022-11-15T03:35:24.696Z,99922.09
2022-11-15T03:37:42.731Z,99907.47
2022-11-15T03:39:45.025Z,99904.03
2022-11-15T03:41:50.123Z,99906.66
2022-11-15T03:44:02.734Z,99898.91
2022-11-15T03:46:41.192Z,99897.16
2022-11-15T03:48:50.386Z,99898.91
2022-11-15T03:50:52.355Z,99892.88
2022-11-15T03:52:56.042Z,99889.41
2022-11-15T03:54:58.303Z,99891.16
2022-11-15T03:57:00.009Z,99891.19
2022-11-15T03:59:01.878Z,99888.59
2022-11-15T04:01:03.759Z,99880.00
2022-11-15T04:03:05.607Z,99873.09
2022-11-15T04:05:07.644Z,99875.69
2022-11-15T04:07:09.527Z,99864.50
2022-11-15T04:09:11.689Z,99858.50
2022-11-15T04:11:13.327Z,99866.25
2022-11-15T04:13:14.964Z,99856.78
2022-11-15T04:15:19.641Z,99857.66
2022-11-15T04:17:21.578Z,99855.06
2022-11-15T04:19:41.746Z,99843.06
2022-11-15T04:22:02.089Z,99844.75
2022-11-15T04:24:15.962Z,99841.31
2022-11-15T04:26:20.823Z,99841.31
2022-11-15T04:28:23.393Z,99831.00
2022-11-15T04:30:25.087Z,99831.00
2022-11-15T04:32:26.797Z,99820.69
2022-11-15T04:34:28.445Z,99821.53
2022-11-15T04:36:48.845Z,99821.53
2022-11-15T04:38:50.488Z,99812.09
2022-11-15T04:40:52.515Z,99805.19
2022-11-15T04:42:55.520Z,99806.06
2022-11-15T04:45:00.516Z,99801.78
2022-11-15T04:47:02.951Z,99796.63
2022-11-15T04:49:04.670Z,99783.72
2022-11-15T04:51:06.379Z,99778.56
2022-11-15T04:53:08.069Z,99780.25
2022-11-15T04:55:14.036Z,99769.06
2022-11-15T04:57:15.927Z,99775.94
2022-11-15T04:59:17.641Z,99773.34
2022-11-15T05:01:19.385Z,99773.34
2022-11-15T05:03:39.727Z,99770.78
2022-11-15T05:05:41.607Z,99763.88
2022-11-15T05:07:43.685Z,99762.16
2022-11-15T05:09:45.445Z,99749.28
2022-11-15T05:11:47.878Z,99749.28
2022-11-15T05:13:49.784Z,99735.50
2022-11-15T05:15:51.494Z,99738.97
2022-11-15T05:17:59.065Z,99738.06
2022-11-15T05:20:00.814Z,99734.59
2022-11-15T05:22:02.529Z,99730.28
2022-11-15T05:24:04.927Z,99721.75
2022-11-15T05:26:09.376Z,99716.53
2022-11-15T05:28:11.236Z,99715.66
2022-11-15T05:30:12.943Z,99703.59
2022-11-15T05:32:14.907Z,99713.94
2022-11-15T05:34:18.341Z,99708.75
2022-11-15T05:36:39.552Z,99707.88
2022-11-15T05:38:41.473Z,99707.88
2022-11-15T05:40:43.239Z,99692.38
2022-11-15T05:42:56.611Z,99683.72
2022-11-15T05:44:59.657Z,99682.00
2022-11-15T05:47:01.450Z,99685.44
2022-11-15T05:49:03.746Z,99687.19
2022-11-15T05:51:07.773Z,99670.84
2022-11-15T05:53:12.410Z,99669.94
2022-11-15T05:55:14.897Z,99668.22
2022-11-15T05:57:17.422Z,99663.03
2022-11-15T05:59:20.007Z,99655.28
2022-11-15T06:01:22.094Z,99655.28
2022-11-15T06:03:23.800Z,99663.06
2022-11-15T06:05:25.623Z,99653.59
2022-11-15T06:07:27.328Z,99654.41
2022-11-15T06:09:30.147Z,99667.38
2022-11-15T06:11:31.881Z,99675.13
2022-11-15T06:13:34.660Z,99645.00
2022-11-15T06:15:36.393Z,99653.59
2022-11-15T06:17:38.226Z,99651.81
2022-11-15T06:19:39.855Z,99648.41
2022-11-15T06:21:41.747Z,99642.34
2022-11-15T06:23:43.644Z,99648.38
2022-11-15T06:25:45.444Z,99640.72
2022-11-15T06:27:52.964Z,99639.81
2022-11-15T06:29:54.744Z,99645.78
2022-11-15T06:31:56.401Z,99632.84
2022-11-15T06:33:58.063Z,99634.63
2022-11-15T06:36:09.228Z,99632.84
2022-11-15T06:38:13.726Z,99631.97
2022-11-15T06:40:15.843Z,99624.25
2022-11-15T06:42:17.585Z,99620.81
2022-11-15T06:44:19.255Z,99617.38
2022-11-15T06:46:20.965Z,99611.41
2022-11-15T06:48:22.711Z,99612.28
2022-11-15T06:50:24.748Z,99625.19
2022-11-15T06:52:26.408Z,99611.56
2022-11-15T06:54:28.260Z,99608.03
2022-11-15T06:56:30.151Z,99602.84
2022-11-15T06:58:32.332Z,99600.31
2022-11-15T07:00:34.448Z,99605.53
2022-11-15T07:02:36.102Z,99590.88
2022-11-15T07:04:37.805Z,99593.56
2022-11-15T07:06:39.606Z,99592.66
2022-11-15T07:08:42.792Z,99585.03
2022-11-15T07:10:44.465Z,99576.41
2022-11-15T07:12:49.849Z,99581.56
2022-11-15T07:14:51.591Z,99572.00
2022-11-15T07:16:53.266Z,99579.78
2022-11-15T07:18:54.962Z,99570.31
2022-11-15T07:20:56.719Z,99569.47
2022-11-15T07:23:05.863Z,99576.38
2022-11-15T07:25:08.276Z,99568.63
2022-11-15T07:27:10.509Z,99568.69
2022-11-15T07:29:12.447Z,99567.78
2022-11-15T07:31:14.114Z,99569.56
2022-11-15T07:33:15.776Z,99558.41
2022-11-15T07:35:17.409Z,99567.84
2022-11-15T07:37:19.739Z,99567.00
2022-11-15T07:39:21.446Z,99561.91
2022-11-15T07:41:23.127Z,99555.81
2022-11-15T07:43:24.885Z,99554.16
2022-11-15T07:45:29.648Z,99552.44
2022-11-15T07:47:31.430Z,99556.72
2022-11-15T07:49:33.197Z,99562.78
2022-11-15T07:51:34.877Z,99549.88
2022-11-15T07:53:36.550Z,99550.75
2022-11-15T07:55:38.596Z,99545.53
2022-11-15T07:57:40.309Z,99546.41
2022-11-15T07:59:41.988Z,99537.81
2022-11-15T08:01:46.289Z,99535.34
2022-11-15T08:03:48.113Z,99527.59
2022-11-15T08:05:53.661Z,99525.81
2022-11-15T08:07:59.156Z,99518.94
2022-11-15T08:10:05.040Z,99519.81
2022-11-15T08:12:06.954Z,99518.06
2022-11-15T08:14:08.619Z,99515.59
2022-11-15T08:16:10.275Z,99512.09
2022-11-15T08:18:16.622Z,99506.94
2022-11-15T08:20:18.334Z,99506.97
2022-11-15T08:22:20.391Z,99500.94
2022-11-15T08:24:22.209Z,99504.38
2022-11-15T08:26:25.856Z,99505.28
2022-11-15T08:28:27.588Z,99501.78
2022-11-15T08:30:31.285Z,99495.78
2022-11-15T08:32:33.086Z,99499.22
2022-11-15T08:34:34.854Z,99493.19
2022-11-15T08:36:44.559Z,99495.81
2022-11-15T08:38:47.888Z,99494.97
2022-11-15T08:40:50.005Z,99489.81
2022-11-15T08:42:54.955Z,99488.03
2022-11-15T08:44:56.893Z,99488.88
2022-11-15T08:46:58.690Z,99476.88
2022-11-15T08:49:00.420Z,99475.09
2022-11-15T08:51:02.147Z,99469.97
2022-11-15T08:53:09.645Z,99472.50
2022-11-15T08:55:11.302Z,99475.09
2022-11-15T08:57:13.491Z,99464.81
2022-11-15T08:59:15.234Z,99458.72
2022-11-15T09:01:19.569Z,99467.31
2022-11-15T09:03:21.757Z,99462.97
2022-11-15T09:05:23.731Z,99459.53
2022-11-15T09:07:25.655Z,99450.94
2022-11-15T09:09:27.359Z,99436.28
2022-11-15T09:11:29.069Z,99432.81
2022-11-15T09:13:30.780Z,99438.03
2022-11-15T09:15:32.526Z,99425.94
2022-11-15T09:17:34.350Z,99435.44
2022-11-15T09:19:36.152Z,99423.38
2022-11-15T09:21:37.850Z,99420.81
2022-11-15T09:23:39.828Z,99426.84
2022-11-15T09:25:41.487Z,99427.66
2022-11-15T09:27:43.145Z,99428.41
2022-11-15T09:29:44.789Z,99408.69
2022-11-15T09:31:46.545Z,99425.97
2022-11-15T09:33:48.241Z,99418.13
2022-11-15T09:35:49.932Z,99409.44
2022-11-15T09:37:56.185Z,99407.78
2022-11-15T09:39:58.242Z,99404.25
2022-11-15T09:42:26.107Z,99401.78
2022-11-15T09:44:46.356Z,99393.97
2022-11-15T09:47:43.489Z,99384.53
2022-11-15T09:49:45.549Z,99380.31
2022-11-15T09:51:51.297Z,99375.22
2022-11-15T09:54:45.499Z,99366.56
2022-11-15T09:56:31.750Z,99367.44
2022-11-15T09:59:04.845Z,99365.66
2022-11-15T10:01:17.435Z,99359.66
2022-11-15T10:03:36.067Z,99358.66
2022-11-15T10:05:48.529Z,99356.13
2022-11-15T10:08:00.604Z,99347.53
2022-11-15T10:10:12.885Z,99336.31
2022-11-15T10:12:15.375Z,99338.81
2022-11-15T10:14:22.947Z,99338.81
2022-11-15T10:17:18.217Z,99335.41
2022-11-15T10:19:32.906Z,99320.66
2022-11-15T10:22:02.354Z,99319.81
2022-11-15T10:24:12.328Z,99321.63
2022-11-15T10:26:17.489Z,99315.63
2022-11-15T10:28:26.972Z,99309.66
2022-11-15T10:30:37.015Z,99301.84
2022-11-15T10:32:44.354Z,99299.31
2022-11-15T10:34:46.827Z,99297.47
2022-11-15T10:36:57.403Z,99288.84
2022-11-15T10:38:59.521Z,99287.97
2022-11-15T10:41:08.827Z,99276.78
2022-11-15T10:43:10.395Z,99272.38
2022-11-15T10:45:39.305Z,99272.47
2022-11-15T10:47:40.970Z,99261.34
2022-11-15T10:50:15.343Z,99257.88
2022-11-15T10:52:20.422Z,99256.34
2022-11-15T10:54:29.931Z,99250.25
2022-11-15T10:56:31.716Z,99248.63
2022-11-15T10:58:54.190Z,99245.22
2022-11-15T11:00:55.884Z,99251.97
2022-11-15T11:02:57.560Z,99253.69
2022-11-15T11:05:00.519Z,99245.13
2022-11-15T11:07:02.199Z,99241.75
2022-11-15T11:09:07.017Z,99235.69
2022-11-15T11:11:09.685Z,99232.19
2022-11-15T11:13:15.493Z,99222.72
2022-11-15T11:15:18.122Z,99222.56
2022-11-15T11:17:44.223Z,99226.06
2022-11-15T11:20:35.417Z,99225.22
2022-11-15T11:23:21.645Z,99195.06
2022-11-15T11:25:41.672Z,99212.19
2022-11-15T11:28:27.679Z,99201.13
2022-11-15T11:30:35.365Z,99197.63
2022-11-15T11:32:45.582Z,99194.19
2022-11-15T11:35:14.313Z,99184.66
2022-11-15T11:37:25.160Z,99183.75
2022-11-15T11:39:34.609Z,99171.69
2022-11-15T11:42:01.606Z,99167.44
2022-11-15T11:44:27.879Z,99165.66
2022-11-15T11:46:29.544Z,99163.09
2022-11-15T11:48:42.320Z,99151.00
2022-11-15T11:50:46.800Z,99156.31
2022-11-15T11:53:04.419Z,99148.56
2022-11-15T11:55:41.280Z,99145.91
2022-11-15T11:57:52.047Z,99141.66
2022-11-15T12:00:15.379Z,99127.84
2022-11-15T12:02:26.253Z,99117.50
2022-11-15T12:04:39.234Z,99111.44
2022-11-15T12:06:59.182Z,99105.41
2022-11-15T12:09:13.157Z,99096.97
2022-11-15T12:11:25.609Z,99093.53
2022-11-15T12:13:34.480Z,99092.47
2022-11-15T12:16:02.887Z,99086.34
2022-11-15T12:18:13.797Z,99083.75
2022-11-15T12:20:17.926Z,99074.34
2022-11-15T12:22:32.963Z,99079.69
2022-11-15T12:24:49.918Z,99083.06
2022-11-15T12:27:01.157Z,99070.94
2022-11-15T12:29:12.248Z,99071.75
2022-11-15T12:31:20.821Z,99062.41
2022-11-15T12:33:38.201Z,99071.84
2022-11-15T12:35:43.119Z,99068.38
2022-11-15T12:37:58.993Z,99064.06
2022-11-15T12:40:27.155Z,99054.84
2022-11-15T12:42:31.790Z,99042.69
2022-11-15T12:44:33.876Z,99045.34
2022-11-15T12:46:42.367Z,99052.91
2022-11-15T12:48:43.953Z,99032.13
2022-11-15T12:51:06.089Z,99024.41
2022-11-15T12:53:26.295Z,99020.81
2022-11-15T12:55:34.175Z,99029.38
2022-11-15T12:57:40.555Z,99009.59
2022-11-15T13:00:14.690Z,99010.47
2022-11-15T13:02:27.587Z,99026.91
2022-11-15T13:04:30.951Z,98997.41
2022-11-15T13:06:47.850Z,99021.75
2022-11-15T13:08:51.902Z,99007.06
2022-11-15T13:10:53.701Z,99007.91
2022-11-15T13:13:08.446Z,99018.22
2022-11-15T13:15:13.498Z,99003.56
2022-11-15T13:17:21.032Z,99018.00
2022-11-15T13:19:24.246Z,99002.41
2022-11-15T13:21:44.722Z,99002.34
2022-11-15T13:23:46.625Z,99000.59
2022-11-15T13:26:13.098Z,99007.19
2022-11-15T13:28:17.615Z,99013.94
2022-11-15T13:30:24.701Z,99007.97
2022-11-15T13:32:26.664Z,99009.34
2022-11-15T13:34:53.156Z,99018.69
2022-11-15T13:36:55.405Z,99011.94
2022-11-15T13:39:15.390Z,99011.50
2022-11-15T13:41:26.211Z,99001.88
2022-11-15T13:43:32.635Z,99010.31
2022-11-15T13:45:34.387Z,99023.41
2022-11-15T13:47:36.289Z,99023.28
2022-11-15T13:49:38.869Z,99017.00
2022-11-15T13:51:44.032Z,99009.00
2022-11-15T13:53:52.045Z,99009.50
2022-11-15T13:55:57.230Z,99020.59
2022-11-15T13:58:07.515Z,99024.06
2022-11-15T14:00:40.001Z,99020.50
2022-11-15T14:02:42.335Z,99020.28
2022-11-15T14:04:58.148Z,99044.34
2022-11-15T14:07:02.261Z,99014.34
2022-11-15T14:09:10.209Z,99022.50
2022-11-15T14:11:18.327Z,99022.31
2022-11-15T14:13:31.349Z,99031.34
2022-11-15T14:15:40.305Z,99024.09
2022-11-15T14:17:47.151Z,99025.56
2022-11-15T14:19:52.294Z,99014.16
2022-11-15T14:22:23.277Z,99029.03
2022-11-15T14:24:32.408Z,99021.00
2022-11-15T14:26:36.111Z,99022.56
2022-11-15T14:28:40.269Z,99018.16
2022-11-15T14:30:44.174Z,99043.03
2022-11-15T14:32:58.072Z,99060.34
2022-11-15T14:35:01.862Z,99022.19
2022-11-15T14:37:03.487Z,99026.75
2022-11-15T14:39:06.440Z,99038.03
2022-11-15T14:41:22.591Z,99015.69
2022-11-15T14:43:24.329Z,99024.22
2022-11-15T14:45:28.411Z,99021.31
2022-11-15T14:47:30.039Z,99023.72
2022-11-15T14:49:31.667Z,99027.03
2022-11-15T14:51:34.274Z,99025.31
2022-11-15T14:53:35.983Z,99029.53
2022-11-15T14:55:37.759Z,99024.56
2022-11-15T14:57:39.454Z,99029.78
2022-11-15T14:59:41.135Z,99025.63
2022-11-15T15:01:43.084Z,99033.53
2022-11-15T15:03:45.287Z,99039.69
2022-11-15T15:05:48.064Z,99040.78
2022-11-15T15:07:50.806Z,99052.84
2022-11-15T15:10:02.736Z,99039.25
2022-11-15T15:12:19.175Z,99036.84
2022-11-15T15:14:20.864Z,99039.63
2022-11-15T15:16:22.749Z,99037.03
2022-11-15T15:18:24.367Z,99040.41
2022-11-15T15:20:26.201Z,99039.50
2022-11-15T15:22:30.984Z,99042.25
2022-11-15T15:24:33.202Z,99040.63
2022-11-15T15:26:37.416Z,99043.38
2022-11-15T15:28:40.797Z,99038.41
2022-11-15T15:30:42.904Z,99041.78
2022-11-15T15:32:44.741Z,99045.53
2022-11-15T15:34:46.522Z,99047.06
2022-11-15T15:36:48.157Z,99054.03
2022-11-15T15:38:49.853Z,99054.28
2022-11-15T15:40:51.981Z,99049.19
2022-11-15T15:42:54.248Z,99053.41
2022-11-15T15:44:56.037Z,99054.22
2022-11-15T15:46:58.926Z,99054.97
2022-11-15T15:49:00.655Z,99057.72
2022-11-15T15:51:06.872Z,99063.88
2022-11-15T15:53:13.937Z,99061.25
2022-11-15T15:55:15.615Z,99061.28
2022-11-15T15:57:17.452Z,99078.50
2022-11-15T15:59:19.095Z,99059.53
2022-11-15T16:01:21.027Z,99064.84
2022-11-15T16:03:23.422Z,99070.06
2022-11-15T16:05:25.354Z,99069.41
2022-11-15T16:07:29.315Z,99076.47
2022-11-15T16:09:49.808Z,99074.59
2022-11-15T16:11:51.436Z,99072.91
2022-11-15T16:13:53.089Z,99068.69
2022-11-15T16:15:56.165Z,99073.16
2022-11-15T16:18:00.518Z,99071.56
2022-11-15T16:20:02.673Z,99080.16
2022-11-15T16:22:04.303Z,99078.63
2022-11-15T16:24:06.368Z,99076.66
2022-11-15T16:26:22.600Z,99080.28
2022-11-15T16:28:29.046Z,99072.53
2022-11-15T16:30:31.077Z,99070.81
2022-11-15T16:32:34.029Z,99078.63
2022-11-15T16:34:41.125Z,99077.81
2022-11-15T16:36:44.598Z,99078.47
2022-11-15T16:38:46.688Z,99089.69
2022-11-15T16:40:48.700Z,99082.94
2022-11-15T16:42:52.349Z,99085.50
2022-11-15T16:44:53.990Z,99087.97
2022-11-15T16:46:55.652Z,99091.59
2022-11-15T16:48:57.697Z,99094.13
2022-11-15T16:51:00.010Z,99092.41
2022-11-15T16:53:02.105Z,99095.97
2022-11-15T16:55:04.063Z,99100.25
2022-11-15T16:57:05.695Z,99101.09
2022-11-15T16:59:07.810Z,99096.91
2022-11-15T17:01:20.437Z,99098.69
2022-11-15T17:03:25.365Z,99097.97
2022-11-15T17:05:30.080Z,99094.50
2022-11-15T17:07:31.726Z,99101.47
2022-11-15T17:09:34.350Z,99101.41
2022-11-15T17:14:10.050Z,99101.59
2022-11-15T17:16:16.763Z,99103.22
2022-11-15T17:18:19.515Z,99100.03
2022-11-15T17:20:23.795Z,99093.91
2022-11-15T17:22:25.977Z,99100.75
2022-11-15T17:24:27.790Z,99095.69
2022-11-15T17:26:32.017Z,99102.53
2022-11-15T17:28:35.772Z,99089.66
2022-11-15T17:30:37.414Z,99094.75
2022-11-15T17:32:39.329Z,99106.00
2022-11-15T17:34:57.447Z,99065.53
2022-11-15T17:36:59.163Z,99056.97
2022-11-15T17:39:02.907Z,99076.84
2022-11-15T17:41:09.479Z,99074.22
2022-11-15T17:43:11.131Z,99078.81
2022-11-15T17:45:13.431Z,99078.66
2022-11-15T17:47:15.225Z,99089.75
2022-11-15T17:49:17.008Z,99086.22
2022-11-15T17:51:19.318Z,99082.03
2022-11-15T17:53:21.474Z,99101.19
2022-11-15T17:55:23.456Z,99100.13
2022-11-15T17:57:25.103Z,99101.94
2022-11-15T17:59:27.698Z,99106.22
2022-11-15T18:01:31.861Z,99107.84
2022-11-15T18:03:35.825Z,99102.75
2022-11-15T18:05:37.633Z,99104.47
2022-11-15T18:07:39.355Z,99117.38
2022-11-15T18:09:44.090Z,99123.34
2022-11-15T18:11:50.657Z,99120.78
2022-11-15T18:13:56.858Z,99114.88
2022-11-15T18:16:02.690Z,99131.25
2022-11-15T18:18:04.790Z,99129.63
2022-11-15T18:20:06.918Z,99117.41
2022-11-15T18:22:10.336Z,99120.91
2022-11-15T18:24:12.262Z,99127.03
2022-11-15T18:26:16.292Z,99132.34
2022-11-15T18:28:17.986Z,99156.53
2022-11-15T18:30:19.787Z,99142.88
2022-11-15T18:32:21.757Z,99130.81
2022-11-15T18:34:25.604Z,99129.78
2022-11-15T18:36:29.737Z,99123.88
2022-11-15T18:38:32.041Z,99122.97
2022-11-15T18:40:33.727Z,99132.56
2022-11-15T18:42:35.382Z,99114.59
2022-11-15T18:44:37.142Z,99113.00
2022-11-15T18:46:42.164Z,99109.50
2022-11-15T18:48:45.211Z,99118.19
2022-11-15T18:50:46.895Z,99119.16
2022-11-15T18:52:50.999Z,99111.25
2022-11-15T18:54:53.113Z,99106.13
2022-11-15T18:56:54.801Z,99105.28
2022-11-15T18:58:58.864Z,99106.09
2022-11-15T19:01:02.197Z,99110.53
2022-11-15T19:03:03.948Z,99116.56
2022-11-15T19:05:06.023Z,99111.34
2022-11-15T19:07:07.680Z,99112.16
2022-11-15T19:09:22.624Z,99123.34
2022-11-15T19:11:29.063Z,99120.78
2022-11-15T19:13:31.203Z,99119.97
2022-11-15T19:15:53.574Z,99121.75
2022-11-15T19:17:55.632Z,99129.59
2022-11-15T19:19:57.585Z,99119.28
2022-11-15T19:21:59.399Z,99126.22
2022-11-15T19:24:05.967Z,99126.16
2022-11-15T19:26:13.200Z,99125.41
2022-11-15T19:28:14.842Z,99123.75
2022-11-15T19:30:16.879Z,99116.13
2022-11-15T19:32:18.713Z,99119.59
2022-11-15T19:34:24.478Z,99120.59
2022-11-15T19:36:29.183Z,99121.41
2022-11-15T19:38:32.710Z,99130.88
2022-11-15T19:40:35.180Z,99128.38
2022-11-15T19:42:36.877Z,99128.38
2022-11-15T19:44:38.605Z,99134.41
2022-11-15T19:46:41.242Z,99129.25
2022-11-15T19:48:43.222Z,99142.00
2022-11-15T19:50:44.892Z,99144.59
2022-11-15T19:52:51.188Z,99145.56
2022-11-15T19:54:53.353Z,99136.06
2022-11-15T19:56:55.221Z,99131.72
2022-11-15T19:58:57.142Z,99131.69
2022-11-15T20:01:16.352Z,99126.59
2022-11-15T20:03:18.084Z,99128.28
2022-11-15T20:05:19.753Z,99133.63
2022-11-15T20:07:21.530Z,99147.41
2022-11-15T20:09:25.935Z,99136.19
2022-11-15T20:11:27.757Z,99133.56
2022-11-15T20:13:29.711Z,99145.56
2022-11-15T20:15:31.652Z,99150.00
2022-11-15T20:17:39.653Z,99148.28
2022-11-15T20:19:41.406Z,99142.22
2022-11-15T20:21:44.297Z,99147.44
2022-11-15T20:23:47.748Z,99143.19
2022-11-15T20:25:49.537Z,99142.25
2022-11-15T20:27:51.587Z,99139.69
2022-11-15T20:29:54.699Z,99137.13
2022-11-15T20:31:56.882Z,99137.13
2022-11-15T20:33:59.195Z,99138.91
2022-11-15T20:36:10.404Z,99147.44
2022-11-15T20:38:12.711Z,99152.66
2022-11-15T20:40:14.591Z,99156.13
2022-11-15T20:42:19.472Z,99162.97
2022-11-15T20:44:21.187Z,99161.28
2022-11-15T20:46:22.858Z,99173.28
2022-11-15T20:48:24.565Z,99168.97
2022-11-15T20:50:42.116Z,99172.44
2022-11-15T20:52:44.788Z,99180.13
2022-11-15T20:54:46.446Z,99178.44
2022-11-15T20:56:48.175Z,99170.69
2022-11-15T20:58:50.885Z,99183.56
2022-11-15T21:04:18.833Z,99186.97
2022-11-15T21:06:21.437Z,99199.03
2022-11-15T21:08:23.388Z,99202.41
2022-11-15T21:10:43.609Z,99198.97
2022-11-15T21:12:48.754Z,99206.81
2022-11-15T21:14:52.567Z,99202.47
2022-11-15T21:16:54.387Z,99197.38
2022-11-15T21:18:56.317Z,99211.06
2022-11-15T21:21:07.532Z,99197.31
2022-11-15T21:23:09.250Z,99198.22
2022-11-15T21:25:11.112Z,99205.97
2022-11-15T21:27:13.089Z,99210.25
2022-11-15T21:29:17.452Z,99192.25
2022-11-15T21:31:19.249Z,99194.78
2022-11-15T21:33:21.607Z,99192.22
2022-11-15T21:35:23.910Z,99193.84
2022-11-15T21:37:25.795Z,99189.53
2022-11-15T21:39:27.560Z,99186.09
2022-11-15T21:41:29.229Z,99190.47
2022-11-15T21:43:30.883Z,99191.31
2022-11-15T21:45:32.588Z,99205.97
2022-11-15T21:47:34.208Z,99200.81
2022-11-15T21:49:35.928Z,99206.84
2022-11-15T21:51:38.016Z,99203.34
2022-11-15T21:53:39.703Z,99198.22
2022-11-15T21:55:41.406Z,99195.59
2022-11-15T21:57:43.160Z,99193.06
2022-11-15T22:00:03.410Z,99187.97
2022-11-15T22:02:17.308Z,99180.28
2022-11-15T22:04:19.158Z,99181.16
2022-11-15T22:06:20.807Z,99177.72
2022-11-15T22:08:23.115Z,99192.38
2022-11-15T22:10:24.925Z,99194.94
2022-11-15T22:12:29.660Z,99188.09
2022-11-15T22:14:31.614Z,99192.38
2022-11-15T22:16:33.382Z,99196.63
2022-11-15T22:18:35.547Z,99195.84
2022-11-15T22:20:44.459Z,99196.72
2022-11-15T22:22:48.664Z,99188.06
2022-11-15T22:24:50.376Z,99194.97
2022-11-15T22:26:52.067Z,99194.13
2022-11-15T22:28:53.757Z,99200.09
2022-11-15T22:30:56.259Z,99195.84
2022-11-15T22:32:57.891Z,99196.75
2022-11-15T22:34:59.526Z,99188.13
2022-11-15T22:39:22.840Z,99186.41
2022-11-15T22:41:24.533Z,99178.75
2022-11-15T22:43:27.323Z,99189.91
2022-11-15T22:45:28.966Z,99183.88
2022-11-15T22:47:30.729Z,99188.19
2022-11-15T22:49:32.365Z,99195.03
2022-11-15T22:51:34.000Z,99192.47
2022-11-15T22:53:35.736Z,99189.09
2022-11-15T22:55:43.952Z,99189.94
2022-11-15T22:57:45.633Z,99186.53
2022-11-15T22:59:47.425Z,99187.38
2022-11-15T23:01:51.811Z,99185.66
2022-11-15T23:03:53.471Z,99189.97
2022-11-15T23:05:55.375Z,99185.69
2022-11-15T23:07:57.033Z,99184.75
2022-11-15T23:10:18.666Z,99197.66
2022-11-15T23:12:46.755Z,99185.63
2022-11-15T23:14:48.520Z,99178.75
2022-11-15T23:16:50.419Z,99182.19
2022-11-15T23:18:58.351Z,99192.47
2022-11-15T23:21:00.222Z,99187.34
2022-11-15T23:23:01.988Z,99186.50
2022-11-15T23:25:04.325Z,99175.34
2022-11-15T23:27:07.575Z,99178.78
2022-11-15T23:29:11.344Z,99177.09
2022-11-15T23:31:31.850Z,99171.94
2022-11-15T23:33:52.036Z,99171.06
2022-11-15T23:35:55.460Z,99163.34
2022-11-15T23:37:57.143Z,99159.91
2022-11-15T23:39:58.810Z,99158.19
2022-11-15T23:42:05.938Z,99161.66
2022-11-15T23:44:10.929Z,99160.75
2022-11-15T23:46:12.586Z,99165.94
2022-11-15T23:48:14.465Z,99165.03
2022-11-15T23:50:16.512Z,99169.31
2022-11-15T23:52:18.287Z,99173.59
2022-11-15T23:54:19.946Z,99173.59
2022-11-15T23:56:22.765Z,99182.13
2022-11-15T23:58:24.582Z,99178.69
